LNR192I LFPG-FACT
Flight info
| Callsign | LNR192I |
|---|---|
| Flight time | N/A |
| Altitude | 35000 |
| Route | LGL UT176 TERPO DCT ERIGA DCT FUJTI DCT PEPET DCT BAKUP/N0491F370 DCT BATAX DCT PINOX DCT TOFEF DCT ALAGU DCT AMSEL UR722 MABAP DCT BULIS UR866 VOSNU/N0488F390 UR866 OG UR983 UMOVO DCT BUMBO UY149 GANBI DCT 00N002E 05S004E 10S006E/N0485F410 15S008E/N0488F400 18S008E/N0484F410 23S010E DCT UVGOD UQ14 UVIKU/N0462F230 Q35 ASPIK ASPIK1B |
| Aircraft | A359/H-SDE2E3GHIJ1J3J4J5LM1ORWXY/LB1D1 |
Departure
| Time | 2026-05-05 23:20 |
|---|---|
| Airport | Charles de Gaulle International Airport (LFPG) |
Arrival
| Time | N/A |
|---|---|
| Airport | Cape Town International Airport (FACT) |
| Time | Latitude | Longitude | Altitude | Speed | Heading |
|---|---|---|---|---|---|
| 2026-05-05 22:56 | 49.00129 | 2.57625 | 366 ft | 0 kts | 358° |
| 2026-05-05 23:11 | 49.00128 | 2.57625 | 360 ft | 2 kts | 358° |
| 2026-05-05 23:11 | 49.00102 | 2.57624 | 362 ft | 4 kts | 8° |
| 2026-05-05 23:11 | 49.00077 | 2.57614 | 364 ft | 4 kts | 28° |
| 2026-05-05 23:12 | 49.00057 | 2.57590 | 368 ft | 4 kts | 65° |
| 2026-05-05 23:12 | 49.00053 | 2.57571 | 366 ft | 0 kts | 85° |
| 2026-05-05 23:13 | 49.00053 | 2.57572 | 366 ft | 0 kts | 85° |
| 2026-05-05 23:14 | 49.00053 | 2.57578 | 367 ft | 3 kts | 85° |
| 2026-05-05 23:14 | 49.00056 | 2.57667 | 363 ft | 9 kts | 96° |
| 2026-05-05 23:14 | 49.00018 | 2.57733 | 366 ft | 9 kts | 154° |
| 2026-05-05 23:14 | 48.99990 | 2.57710 | 368 ft | 5 kts | 233° |
| 2026-05-05 23:15 | 48.99975 | 2.57629 | 367 ft | 11 kts | 264° |
| 2026-05-05 23:15 | 48.99969 | 2.57485 | 360 ft | 16 kts | 266° |
| 2026-05-05 23:15 | 48.99959 | 2.57304 | 367 ft | 17 kts | 265° |
| 2026-05-05 23:15 | 48.99951 | 2.57146 | 365 ft | 13 kts | 265° |
| 2026-05-05 23:16 | 48.99943 | 2.57020 | 366 ft | 13 kts | 265° |
| 2026-05-05 23:16 | 48.99934 | 2.56862 | 360 ft | 17 kts | 265° |
| 2026-05-05 23:16 | 48.99922 | 2.56667 | 365 ft | 18 kts | 265° |
| 2026-05-05 23:16 | 48.99913 | 2.56496 | 366 ft | 14 kts | 265° |
| 2026-05-05 23:17 | 48.99907 | 2.56361 | 362 ft | 11 kts | 266° |
| 2026-05-05 23:17 | 48.99902 | 2.56247 | 368 ft | 13 kts | 266° |
| 2026-05-05 23:17 | 48.99893 | 2.56095 | 362 ft | 14 kts | 260° |
| 2026-05-05 23:17 | 48.99839 | 2.56014 | 367 ft | 10 kts | 209° |
| 2026-05-05 23:18 | 48.99788 | 2.55892 | 365 ft | 16 kts | 246° |
| 2026-05-05 23:18 | 48.99711 | 2.55813 | 367 ft | 12 kts | 183° |
| 2026-05-05 23:18 | 48.99637 | 2.55826 | 366 ft | 8 kts | 171° |
| 2026-05-05 23:18 | 48.99607 | 2.55868 | 366 ft | 6 kts | 114° |
| 2026-05-05 23:19 | 48.99607 | 2.55960 | 361 ft | 15 kts | 85° |
| 2026-05-05 23:19 | 48.99627 | 2.56332 | 369 ft | 62 kts | 85° |
| 2026-05-05 23:19 | 48.99678 | 2.57260 | 363 ft | 113 kts | 85° |
| 2026-05-05 23:19 | 48.99757 | 2.58680 | 365 ft | 156 kts | 85° |
| 2026-05-05 23:20 | 48.99844 | 2.60482 | 629 ft | 174 kts | 81° |
| 2026-05-05 23:20 | 48.99922 | 2.62309 | 1202 ft | 176 kts | 83° |
| 2026-05-05 23:20 | 48.99985 | 2.64196 | 1789 ft | 179 kts | 82° |
| 2026-05-05 23:20 | 49.00045 | 2.66065 | 2326 ft | 178 kts | 81° |
| 2026-05-05 23:21 | 49.00143 | 2.67922 | 2852 ft | 174 kts | 79° |
| 2026-05-05 23:21 | 49.00276 | 2.69767 | 3287 ft | 176 kts | 79° |
| 2026-05-05 23:21 | 49.00409 | 2.71671 | 3589 ft | 187 kts | 81° |
| 2026-05-05 23:21 | 49.00535 | 2.73738 | 3783 ft | 203 kts | 82° |
| 2026-05-05 23:22 | 49.00654 | 2.75950 | 4051 ft | 215 kts | 83° |
| 2026-05-05 23:22 | 49.00592 | 2.78264 | 4439 ft | 223 kts | 94° |
| 2026-05-05 23:22 | 49.00381 | 2.80614 | 4817 ft | 228 kts | 96° |
| 2026-05-05 23:22 | 49.00138 | 2.83005 | 5281 ft | 229 kts | 97° |
| 2026-05-05 23:23 | 48.99891 | 2.85417 | 5759 ft | 232 kts | 97° |
| 2026-05-05 23:23 | 48.99641 | 2.87909 | 6054 ft | 247 kts | 98° |
| 2026-05-05 23:23 | 48.99461 | 2.89706 | 6193 ft | 260 kts | 98° |
| 2026-05-05 23:23 | 48.99183 | 2.92501 | 6494 ft | 274 kts | 98° |
| 2026-05-05 23:24 | 48.98885 | 2.95352 | 7053 ft | 278 kts | 101° |
| 2026-05-05 23:24 | 48.98219 | 2.98121 | 7625 ft | 281 kts | 123° |
| 2026-05-05 23:24 | 48.96850 | 3.00226 | 8272 ft | 281 kts | 150° |
| 2026-05-05 23:24 | 48.95014 | 3.01162 | 8939 ft | 280 kts | 176° |
| 2026-05-05 23:25 | 48.92535 | 3.00365 | 9830 ft | 279 kts | 210° |
| 2026-05-05 23:25 | 48.91485 | 2.99145 | 10107 ft | 287 kts | 226° |
| 2026-05-05 23:25 | 48.90452 | 2.96481 | 10370 ft | 304 kts | 250° |
| 2026-05-05 23:25 | 48.89850 | 2.93321 | 10639 ft | 320 kts | 255° |
| 2026-05-05 23:26 | 48.89285 | 2.89959 | 10918 ft | 336 kts | 255° |
| 2026-05-05 23:26 | 48.88684 | 2.86457 | 11191 ft | 350 kts | 254° |
| 2026-05-05 23:26 | 48.88040 | 2.82799 | 11453 ft | 364 kts | 254° |
| 2026-05-05 23:26 | 48.87375 | 2.79081 | 11847 ft | 373 kts | 254° |
| 2026-05-05 23:27 | 48.86685 | 2.75253 | 12413 ft | 376 kts | 253° |
| 2026-05-05 23:27 | 48.85989 | 2.71418 | 13092 ft | 377 kts | 253° |
| 2026-05-05 23:27 | 48.85286 | 2.67564 | 13692 ft | 381 kts | 254° |
| 2026-05-05 23:27 | 48.84573 | 2.63668 | 14159 ft | 385 kts | 253° |
| 2026-05-05 23:28 | 48.83848 | 2.59714 | 14624 ft | 390 kts | 253° |
| 2026-05-05 23:28 | 48.83116 | 2.55730 | 15159 ft | 393 kts | 253° |
| 2026-05-05 23:28 | 48.82377 | 2.51719 | 15688 ft | 396 kts | 253° |
| 2026-05-05 23:28 | 48.81629 | 2.47672 | 16107 ft | 401 kts | 253° |
| 2026-05-05 23:29 | 48.80882 | 2.43626 | 16617 ft | 404 kts | 253° |
| 2026-05-05 23:29 | 48.80283 | 2.39427 | 17108 ft | 409 kts | 261° |
| 2026-05-05 23:29 | 48.80097 | 2.35102 | 17601 ft | 413 kts | 268° |
| 2026-05-05 23:29 | 48.80092 | 2.30703 | 18078 ft | 418 kts | 269° |
| 2026-05-05 23:30 | 48.80110 | 2.26281 | 18504 ft | 421 kts | 269° |
| 2026-05-05 23:30 | 48.80125 | 2.21814 | 18953 ft | 424 kts | 269° |
| 2026-05-05 23:30 | 48.80135 | 2.17325 | 19420 ft | 428 kts | 269° |
| 2026-05-05 23:30 | 48.80140 | 2.12799 | 19948 ft | 429 kts | 270° |
| 2026-05-05 23:31 | 48.80141 | 2.08305 | 20430 ft | 432 kts | 270° |
| 2026-05-05 23:31 | 48.80141 | 2.03722 | 20892 ft | 436 kts | 270° |
| 2026-05-05 23:31 | 48.80137 | 1.99104 | 21346 ft | 440 kts | 270° |
| 2026-05-05 23:31 | 48.80132 | 1.94438 | 21797 ft | 443 kts | 270° |
| 2026-05-05 23:32 | 48.80125 | 1.89746 | 22289 ft | 446 kts | 270° |
| 2026-05-05 23:32 | 48.80115 | 1.85027 | 22777 ft | 449 kts | 271° |
| 2026-05-05 23:32 | 48.80104 | 1.80279 | 23196 ft | 453 kts | 271° |
| 2026-05-05 23:32 | 48.80090 | 1.75474 | 23593 ft | 457 kts | 271° |
| 2026-05-05 23:33 | 48.80075 | 1.70633 | 23949 ft | 461 kts | 270° |
| 2026-05-05 23:33 | 48.80056 | 1.65809 | 24344 ft | 463 kts | 270° |
| 2026-05-05 23:33 | 48.80036 | 1.60902 | 24688 ft | 467 kts | 270° |
| 2026-05-05 23:33 | 48.80013 | 1.55938 | 25041 ft | 471 kts | 270° |
| 2026-05-05 23:34 | 48.79988 | 1.50950 | 25444 ft | 473 kts | 270° |
| 2026-05-05 23:34 | 48.79961 | 1.45939 | 25852 ft | 476 kts | 270° |
| 2026-05-05 23:34 | 48.79932 | 1.40901 | 26200 ft | 479 kts | 270° |
| 2026-05-05 23:34 | 48.79900 | 1.35828 | 26556 ft | 482 kts | 270° |
| 2026-05-05 23:35 | 48.79866 | 1.30771 | 26927 ft | 485 kts | 270° |
| 2026-05-05 23:35 | 48.79830 | 1.25634 | 27240 ft | 489 kts | 270° |
| 2026-05-05 23:35 | 48.79790 | 1.20450 | 27563 ft | 492 kts | 270° |
| 2026-05-05 23:35 | 48.79748 | 1.15228 | 27909 ft | 495 kts | 270° |
| 2026-05-05 23:36 | 48.79704 | 1.10061 | 28232 ft | 498 kts | 270° |
| 2026-05-05 23:36 | 48.79657 | 1.04780 | 28544 ft | 500 kts | 270° |
| 2026-05-05 23:36 | 48.79607 | 0.99482 | 28854 ft | 503 kts | 270° |
| 2026-05-05 23:36 | 48.79554 | 0.94161 | 29148 ft | 506 kts | 270° |
| 2026-05-05 23:37 | 48.79499 | 0.88806 | 29431 ft | 509 kts | 270° |
| 2026-05-05 23:37 | 48.79441 | 0.83425 | 29759 ft | 510 kts | 269° |
| 2026-05-05 23:37 | 48.79381 | 0.78104 | 30199 ft | 508 kts | 269° |
| 2026-05-05 23:37 | 48.79318 | 0.72752 | 30605 ft | 506 kts | 269° |
| 2026-05-05 23:38 | 48.79253 | 0.67436 | 31016 ft | 504 kts | 269° |
| 2026-05-05 23:38 | 48.79096 | 0.62126 | 31410 ft | 502 kts | 264° |
| 2026-05-05 23:38 | 48.78496 | 0.56914 | 31771 ft | 499 kts | 254° |
| 2026-05-05 23:38 | 48.77356 | 0.51954 | 32107 ft | 497 kts | 244° |
| 2026-05-05 23:39 | 48.75728 | 0.47431 | 32454 ft | 494 kts | 235° |
| 2026-05-05 23:39 | 48.73673 | 0.43264 | 32798 ft | 491 kts | 230° |
| 2026-05-05 23:39 | 48.71504 | 0.39284 | 33109 ft | 490 kts | 229° |
| 2026-05-05 23:39 | 48.69284 | 0.35368 | 33411 ft | 489 kts | 228° |
| 2026-05-05 23:40 | 48.67047 | 0.31480 | 33721 ft | 488 kts | 228° |
| 2026-05-05 23:40 | 48.64820 | 0.27614 | 34022 ft | 486 kts | 227° |
| 2026-05-05 23:40 | 48.62604 | 0.23750 | 34237 ft | 486 kts | 228° |
| 2026-05-05 23:40 | 48.60397 | 0.19887 | 34467 ft | 485 kts | 228° |
| 2026-05-05 23:41 | 48.58194 | 0.16019 | 34625 ft | 485 kts | 228° |
| 2026-05-05 23:41 | 48.56019 | 0.12176 | 34822 ft | 485 kts | 228° |
| 2026-05-05 23:41 | 48.51623 | 0.04360 | 34917 ft | 491 kts | 229° |
| 2026-05-05 23:42 | 48.47197 | -0.03498 | 34917 ft | 492 kts | 229° |
| 2026-05-05 23:42 | 48.42741 | -0.11377 | 34920 ft | 494 kts | 229° |
| 2026-05-05 23:43 | 48.38304 | -0.19193 | 34913 ft | 493 kts | 229° |
| 2026-05-05 23:43 | 48.33832 | -0.27048 | 34913 ft | 494 kts | 229° |
| 2026-05-05 23:44 | 48.29322 | -0.34854 | 34914 ft | 494 kts | 228° |
| 2026-05-05 23:44 | 48.24994 | -0.42275 | 34914 ft | 494 kts | 228° |
| 2026-05-05 23:45 | 48.20477 | -0.50009 | 34912 ft | 493 kts | 228° |
| 2026-05-05 23:45 | 48.15986 | -0.57692 | 34912 ft | 492 kts | 228° |
| 2026-05-05 23:46 | 48.11458 | -0.65420 | 34911 ft | 492 kts | 228° |
| 2026-05-05 23:46 | 48.06936 | -0.73116 | 34911 ft | 493 kts | 228° |
| 2026-05-05 23:47 | 48.02403 | -0.80809 | 34911 ft | 493 kts | 228° |
| 2026-05-05 23:47 | 47.97868 | -0.88481 | 34911 ft | 493 kts | 228° |
| 2026-05-05 23:48 | 47.93340 | -0.96120 | 34917 ft | 495 kts | 228° |
| 2026-05-05 23:48 | 47.88774 | -1.03801 | 34916 ft | 495 kts | 228° |
| 2026-05-05 23:49 | 47.84199 | -1.11475 | 34914 ft | 495 kts | 228° |
| 2026-05-05 23:49 | 47.79623 | -1.19129 | 34924 ft | 495 kts | 228° |
| 2026-05-05 23:50 | 47.75044 | -1.26766 | 34912 ft | 494 kts | 228° |
| 2026-05-05 23:50 | 47.70456 | -1.34395 | 34914 ft | 495 kts | 228° |
| 2026-05-05 23:51 | 47.65886 | -1.41972 | 34913 ft | 495 kts | 228° |
| 2026-05-05 23:51 | 47.61282 | -1.49585 | 34910 ft | 495 kts | 228° |
| 2026-05-05 23:52 | 47.56675 | -1.57195 | 34915 ft | 495 kts | 228° |
| 2026-05-05 23:52 | 47.52098 | -1.64733 | 34911 ft | 495 kts | 228° |
| 2026-05-05 23:53 | 47.47483 | -1.72310 | 34917 ft | 496 kts | 228° |
| 2026-05-05 23:53 | 47.42867 | -1.79869 | 34912 ft | 497 kts | 229° |
| 2026-05-05 23:54 | 47.38229 | -1.87443 | 34918 ft | 496 kts | 228° |
| 2026-05-05 23:54 | 47.33115 | -1.94291 | 34934 ft | 497 kts | 214° |
| 2026-05-05 23:55 | 47.27332 | -1.99786 | 34937 ft | 498 kts | 212° |
| 2026-05-05 23:55 | 47.21360 | -2.05084 | 34937 ft | 498 kts | 211° |
| 2026-05-05 23:56 | 47.15643 | -2.10114 | 34938 ft | 499 kts | 212° |
| 2026-05-05 23:56 | 47.09671 | -2.15395 | 34930 ft | 501 kts | 212° |
| 2026-05-05 23:57 | 47.03686 | -2.20699 | 34930 ft | 502 kts | 212° |
| 2026-05-05 23:57 | 46.97690 | -2.26004 | 34931 ft | 502 kts | 212° |
| 2026-05-05 23:58 | 46.91774 | -2.31222 | 34933 ft | 503 kts | 212° |
| 2026-05-05 23:58 | 46.85970 | -2.36328 | 34932 ft | 503 kts | 211° |
| 2026-05-05 23:59 | 46.79991 | -2.41583 | 34932 ft | 502 kts | 212° |
| 2026-05-05 23:59 | 46.74250 | -2.46612 | 34931 ft | 502 kts | 212° |
| 2026-05-06 00:00 | 46.68592 | -2.51558 | 34936 ft | 505 kts | 212° |
| 2026-05-06 00:00 | 46.62596 | -2.56786 | 34937 ft | 506 kts | 212° |
| 2026-05-06 00:01 | 46.56551 | -2.62042 | 34937 ft | 506 kts | 212° |
| 2026-05-06 00:01 | 46.50516 | -2.67276 | 34932 ft | 505 kts | 212° |
| 2026-05-06 00:02 | 46.44494 | -2.72486 | 34933 ft | 505 kts | 212° |
| 2026-05-06 00:02 | 46.38436 | -2.77713 | 34936 ft | 506 kts | 211° |
| 2026-05-06 00:03 | 46.32388 | -2.82918 | 34937 ft | 506 kts | 211° |
| 2026-05-06 00:03 | 46.26314 | -2.88132 | 34937 ft | 507 kts | 211° |
| 2026-05-06 00:04 | 46.20286 | -2.93295 | 34937 ft | 507 kts | 211° |
| 2026-05-06 00:04 | 46.14210 | -2.98482 | 34935 ft | 507 kts | 211° |
| 2026-05-06 00:05 | 46.05129 | -3.06208 | 34938 ft | 506 kts | 211° |
| 2026-05-06 00:06 | 45.99068 | -3.11350 | 34936 ft | 505 kts | 211° |
| 2026-05-06 00:06 | 45.93013 | -3.16474 | 34931 ft | 505 kts | 211° |
| 2026-05-06 00:07 | 45.86936 | -3.21603 | 34943 ft | 504 kts | 211° |
| 2026-05-06 00:07 | 45.80875 | -3.26706 | 34945 ft | 504 kts | 211° |
| 2026-05-06 00:08 | 45.74856 | -3.31761 | 34948 ft | 505 kts | 211° |
| 2026-05-06 00:08 | 45.68901 | -3.36748 | 34951 ft | 504 kts | 211° |
| 2026-05-06 00:09 | 45.62839 | -3.41813 | 34947 ft | 503 kts | 211° |
| 2026-05-06 00:09 | 45.56824 | -3.46826 | 34951 ft | 502 kts | 211° |
| 2026-05-06 00:10 | 45.50778 | -3.51852 | 34943 ft | 502 kts | 211° |
| 2026-05-06 00:10 | 45.44730 | -3.56868 | 34952 ft | 503 kts | 211° |
| 2026-05-06 00:11 | 45.38669 | -3.61882 | 34961 ft | 503 kts | 211° |
| 2026-05-06 00:11 | 45.33631 | -3.66039 | 34961 ft | 503 kts | 211° |
| 2026-05-06 00:12 | 45.27565 | -3.71033 | 34967 ft | 501 kts | 212° |
| 2026-05-06 00:12 | 45.21533 | -3.75987 | 34968 ft | 500 kts | 211° |
| 2026-05-06 00:13 | 45.15492 | -3.80937 | 34969 ft | 501 kts | 211° |
| 2026-05-06 00:13 | 45.09481 | -3.85849 | 34968 ft | 500 kts | 211° |
| 2026-05-06 00:14 | 45.03484 | -3.90841 | 34973 ft | 500 kts | 213° |
| 2026-05-06 00:14 | 44.97548 | -3.95966 | 34974 ft | 500 kts | 213° |
| 2026-05-06 00:15 | 44.91612 | -4.01084 | 34974 ft | 499 kts | 213° |
| 2026-05-06 00:15 | 44.85709 | -4.06128 | 34975 ft | 497 kts | 213° |
| 2026-05-06 00:16 | 44.79786 | -4.11161 | 34975 ft | 497 kts | 213° |
| 2026-05-06 00:16 | 44.73859 | -4.16183 | 34982 ft | 497 kts | 213° |
| 2026-05-06 00:17 | 44.67927 | -4.21198 | 34986 ft | 497 kts | 213° |
| 2026-05-06 00:17 | 44.61990 | -4.26206 | 34985 ft | 497 kts | 213° |
| 2026-05-06 00:18 | 44.56087 | -4.31173 | 34989 ft | 497 kts | 213° |
| 2026-05-06 00:18 | 44.50149 | -4.36158 | 34993 ft | 496 kts | 213° |
| 2026-05-06 00:19 | 44.44237 | -4.41109 | 35026 ft | 494 kts | 212° |
| 2026-05-06 00:19 | 44.41436 | -4.43449 | 35288 ft | 491 kts | 213° |
| 2026-05-06 00:19 | 44.38522 | -4.45896 | 35598 ft | 487 kts | 213° |
| 2026-05-06 00:19 | 44.35622 | -4.48351 | 35838 ft | 485 kts | 213° |
| 2026-05-06 00:20 | 44.32729 | -4.50807 | 36002 ft | 485 kts | 213° |
| 2026-05-06 00:20 | 44.29847 | -4.53254 | 36222 ft | 484 kts | 213° |
| 2026-05-06 00:20 | 44.27003 | -4.55664 | 36381 ft | 483 kts | 213° |
| 2026-05-06 00:20 | 44.24125 | -4.58098 | 36516 ft | 484 kts | 213° |
| 2026-05-06 00:21 | 44.21233 | -4.60540 | 36592 ft | 485 kts | 213° |
| 2026-05-06 00:21 | 44.15441 | -4.65416 | 36808 ft | 486 kts | 213° |
| 2026-05-06 00:21 | 44.12539 | -4.67854 | 36960 ft | 486 kts | 213° |
| 2026-05-06 00:22 | 44.09670 | -4.70260 | 37015 ft | 488 kts | 213° |
| 2026-05-06 00:22 | 44.03831 | -4.75153 | 37020 ft | 491 kts | 213° |
| 2026-05-06 00:23 | 43.97979 | -4.80043 | 37020 ft | 490 kts | 213° |
| 2026-05-06 00:23 | 43.92130 | -4.84919 | 37022 ft | 490 kts | 213° |
| 2026-05-06 00:24 | 43.86284 | -4.89781 | 37033 ft | 489 kts | 213° |
| 2026-05-06 00:24 | 43.80484 | -4.94595 | 37031 ft | 489 kts | 213° |
| 2026-05-06 00:25 | 43.74642 | -4.99433 | 37037 ft | 490 kts | 213° |
| 2026-05-06 00:25 | 43.68789 | -5.04269 | 37037 ft | 489 kts | 213° |
| 2026-05-06 00:26 | 43.62941 | -5.09088 | 37045 ft | 488 kts | 213° |
| 2026-05-06 00:26 | 43.57099 | -5.13892 | 37045 ft | 488 kts | 213° |
| 2026-05-06 00:27 | 43.51294 | -5.18655 | 37046 ft | 488 kts | 213° |
| 2026-05-06 00:27 | 43.45448 | -5.23441 | 37062 ft | 487 kts | 213° |
| 2026-05-06 00:28 | 43.39653 | -5.28174 | 37061 ft | 486 kts | 213° |
| 2026-05-06 00:28 | 43.33830 | -5.32918 | 37071 ft | 486 kts | 213° |
| 2026-05-06 00:29 | 43.27997 | -5.37662 | 37089 ft | 486 kts | 214° |
| 2026-05-06 00:29 | 43.22219 | -5.42349 | 37069 ft | 484 kts | 214° |